Milton Center, Ohio
Current Conditions -  °F | °C
As of 3:52 PM on Monday 24 Nov 2014 (Local Time) from KTOL Reporting Station
Overcast Overcast  
Wind Chill: 28°   Ceiling: 2200
Heat Index: 40°   Visibility: 10mi
Dew Point: 32°   Wind: 35mph
Humidity: 73%   Direction: 230°SW
Pressure: 29.5"   Gusts: 46mph
Location:  41.3°N, 83.83°W
Report Text: KTOL 242052Z 23030G40KT 10SM OVC022 04/00 A2950 RMK AO2 PK WND 25041/2022 SLP993 T00440000 51072
Loading
Personal Weather Stations






























Interactive Weather Map New forecast layout! Learn more

10-Day Weather Forecast

Advertisements
Track Severe Weather on mobile